Time,TemperatureF,DewpointF,PressureIn,WindDirection,WindDirectionDegrees,WindSpeedMPH,WindSpeedGustMPH,Humidity,HourlyPrecipIn,Conditions,Clouds,dailyrainin,SoftwareType,DateUTC
2013-01-28 02:21:00,62.0,58.1,30.25,SE,144,1.3,7.0,87,0.00,CLR,,0.00,WeatherDisplay:10.37,2013-01-28 07:21:00,
2013-01-28 02:22:00,62.0,58.1,30.25,SE,141,1.0,7.0,87,0.00,CLR,,0.00,WeatherDisplay:10.37,2013-01-28 07:22:00,
2013-01-28 02:27:00,61.9,58.0,30.24,NNE,31,0.4,2.3,87,0.00,CLR,,0.00,WeatherDisplay:10.37,2013-01-28 07:27:00,
2013-01-28 02:32:00,61.8,58.2,30.24,NE,51,0.2,2.3,88,0.00,CLR,,0.00,WeatherDisplay:10.37,2013-01-28 07:32:00,
2013-01-28 02:37:00,61.7,58.1,30.24,ESE,118,0.0,1.1,88,0.00,CLR,,0.00,WeatherDisplay:10.37,2013-01-28 07:37:00,
2013-01-28 02:42:00,61.6,58.0,30.24,NE,37,0.9,2.3,88,0.00,CLR,,0.00,WeatherDisplay:10.37,2013-01-28 07:42:00,
2013-01-28 02:47:00,61.4,57.8,30.24,NNW,341,0.0,1.1,88,0.00,CLR,,0.00,WeatherDisplay:10.37,2013-01-28 07:47:00,
2013-01-28 02:52:00,61.3,57.7,30.24,ENE,74,0.0,3.5,88,0.00,CLR,,0.00,WeatherDisplay:10.37,2013-01-28 07:52:00,
2013-01-28 02:57:00,61.3,58.0,30.24,NE,34,0.6,2.0,89,0.00,CLR,,0.00,WeatherDisplay:10.37,2013-01-28 07:57:00,
2013-01-28 03:02:00,61.4,58.1,30.24,SE,128,0.0,0.0,89,0.00,CLR,,0.00,WeatherDisplay:10.37,2013-01-28 08:02:00,
2013-01-28 03:07:00,61.4,58.1,30.24,ESE,110,0.0,0.0,89,0.00,CLR,,0.00,WeatherDisplay:10.37,2013-01-28 08:07:00,
2013-01-28 03:12:00,61.5,58.2,30.24,East,94,0.2,3.5,89,0.00,CLR,,0.00,WeatherDisplay:10.37,2013-01-28 08:12:00,
2013-01-28 03:17:00,61.6,58.3,30.24,East,81,0.0,1.1,89,0.00,CLR,,0.00,WeatherDisplay:10.37,2013-01-28 08:17:00,
2013-01-28 03:22:00,61.7,58.4,30.24,ESE,117,0.3,2.3,89,0.00,CLR,,0.00,WeatherDisplay:10.37,2013-01-28 08:22:00,
2013-01-28 03:27:00,61.7,58.4,30.24,East,81,0.0,0.0,89,0.00,CLR,,0.00,WeatherDisplay:10.37,2013-01-28 08:27:00,
2013-01-28 03:32:00,61.8,58.5,30.24,East,86,0.0,0.0,89,0.00,BKN,,0.00,WeatherDisplay:10.37,2013-01-28 08:32:00,
2013-01-28 03:37:00,61.9,58.6,30.24,East,92,0.3,3.5,89,0.00,BKN,,0.00,WeatherDisplay:10.37,2013-01-28 08:37:00,
2013-01-28 03:42:00,62.0,58.7,30.25,ESE,103,0.0,0.0,89,0.00,BKN,,0.00,WeatherDisplay:10.37,2013-01-28 08:42:00,
2013-01-28 03:47:00,62.1,58.8,30.25,ENE,74,0.0,2.3,89,0.00,BKN,,0.00,WeatherDisplay:10.37,2013-01-28 08:47:00,
2013-01-28 03:52:00,62.0,58.7,30.25,ESE,116,0.0,0.0,89,0.00,BKN,,0.00,WeatherDisplay:10.37,2013-01-28 08:52:00,
2013-01-28 03:57:00,62.0,59.0,30.25,SE,124,0.1,1.1,90,0.00,BKN,,0.00,WeatherDisplay:10.37,2013-01-28 08:57:00,
2013-01-28 04:02:00,62.0,59.0,30.25,East,89,0.1,1.1,90,0.00,BKN,,0.00,WeatherDisplay:10.37,2013-01-28 09:02:00,
2013-01-28 04:07:00,62.1,59.1,30.25,ESE,122,0.1,1.1,90,0.00,BKN,,0.00,WeatherDisplay:10.37,2013-01-28 09:07:00,
2013-01-28 04:12:00,62.1,59.1,30.25,ESE,112,0.3,1.0,90,0.00,BKN,,0.00,WeatherDisplay:10.37,2013-01-28 09:12:00,
2013-01-28 04:17:00,62.1,59.1,30.25,SE,124,0.3,2.3,90,0.00,BKN,,0.00,WeatherDisplay:10.37,2013-01-28 09:17:00,
2013-01-28 04:22:00,62.1,59.1,30.24,SSE,148,0.6,3.5,90,0.00,BKN,,0.00,WeatherDisplay:10.37,2013-01-28 09:22:00,
2013-01-28 04:27:00,62.0,59.0,30.24,ESE,115,0.3,3.5,90,0.00,BKN,,0.00,WeatherDisplay:10.37,2013-01-28 09:27:00,
2013-01-28 04:32:00,61.9,58.9,30.24,East,91,0.7,8.1,90,0.00,BKN,,0.00,WeatherDisplay:10.37,2013-01-28 09:32:00,
2013-01-28 04:38:00,61.8,58.8,30.24,East,101,2.1,2.3,90,0.00,BKN,,0.00,WeatherDisplay:10.37,2013-01-28 09:38:00,
2013-01-28 04:43:00,61.7,59.0,30.24,ESE,122,0.7,3.5,91,0.00,BKN,,0.00,WeatherDisplay:10.37,2013-01-28 09:43:00,
2013-01-28 04:48:00,61.6,58.9,30.24,East,91,0.3,4.6,91,0.00,BKN,,0.00,WeatherDisplay:10.37,2013-01-28 09:48:00,
2013-01-28 04:53:00,61.5,58.8,30.24,East,98,0.3,3.5,91,0.00,BKN,,0.00,WeatherDisplay:10.37,2013-01-28 09:53:00,
2013-01-28 04:58:00,61.4,58.7,30.24,SE,133,0.0,2.3,91,0.00,BKN,,0.00,WeatherDisplay:10.37,2013-01-28 09:58:00,
2013-01-28 05:03:00,61.4,58.7,30.24,ESE,105,0.0,0.0,91,0.00,BKN,,0.00,WeatherDisplay:10.37,2013-01-28 10:03:00,
2013-01-28 05:08:00,61.3,59.0,30.25,East,86,1.1,3.5,92,0.00,BKN,,0.00,WeatherDisplay:10.37,2013-01-28 10:08:00,
2013-01-28 05:13:00,61.2,58.9,30.24,East,84,0.6,2.3,92,0.00,FEW,,0.00,WeatherDisplay:10.37,2013-01-28 10:13:00,
2013-01-28 05:18:00,61.2,58.9,30.24,East,79,0.9,2.3,92,0.00,FEW,,0.00,WeatherDisplay:10.37,2013-01-28 10:18:00,
2013-01-28 05:23:00,61.3,59.0,30.24,East,81,0.3,1.1,92,0.00,FEW,,0.00,WeatherDisplay:10.37,2013-01-28 10:23:00,
2013-01-28 05:28:00,61.2,58.9,30.25,East,88,1.9,3.5,92,0.00,FEW,,0.00,WeatherDisplay:10.37,2013-01-28 10:28:00,
2013-01-28 05:33:00,61.2,58.9,30.24,East,92,0.4,1.1,92,0.00,FEW,,0.00,WeatherDisplay:10.37,2013-01-28 10:33:00,
2013-01-28 05:38:00,61.2,58.9,30.25,SE,124,0.7,3.5,92,0.00,FEW,,0.00,WeatherDisplay:10.37,2013-01-28 10:38:00,
2013-01-28 05:43:00,61.2,58.9,30.25,East,88,1.1,3.5,92,0.00,FEW,,0.00,WeatherDisplay:10.37,2013-01-28 10:43:00,
2013-01-28 05:48:00,61.2,58.9,30.25,East,89,1.2,2.3,92,0.00,FEW,,0.00,WeatherDisplay:10.37,2013-01-28 10:48:00,
2013-01-28 05:53:00,61.3,59.0,30.25,ENE,78,1.8,4.6,92,0.00,FEW,,0.00,WeatherDisplay:10.37,2013-01-28 10:53:00,
2013-01-28 05:58:00,61.3,59.0,30.25,ESE,118,0.1,1.0,92,0.00,FEW,,0.00,WeatherDisplay:10.37,2013-01-28 10:58:00,
2013-01-28 06:03:00,61.2,58.9,30.25,East,84,1.2,2.3,92,0.00,SCT,,0.00,WeatherDisplay:10.37,2013-01-28 11:03:00,
2013-01-28 06:08:00,61.1,58.8,30.25,ENE,65,1.1,2.3,92,0.00,SCT,,0.00,WeatherDisplay:10.37,2013-01-28 11:08:00,
2013-01-28 06:13:00,61.1,59.1,30.25,ESE,103,0.5,2.3,93,0.00,SCT,,0.00,WeatherDisplay:10.37,2013-01-28 11:13:00,
2013-01-28 06:18:00,61.0,59.0,30.25,ESE,120,0.2,1.1,93,0.00,SCT,,0.00,WeatherDisplay:10.37,2013-01-28 11:18:00,
2013-01-28 06:23:00,60.9,58.9,30.25,SE,128,0.3,1.1,93,0.00,SCT,,0.00,WeatherDisplay:10.37,2013-01-28 11:23:00,
2013-01-28 06:28:00,60.9,58.9,30.26,ENE,77,0.4,3.0,93,0.00,SCT,,0.00,WeatherDisplay:10.37,2013-01-28 11:28:00,
2013-01-28 06:33:00,60.8,58.8,30.26,ESE,102,0.0,1.1,93,0.00,SCT,,0.00,WeatherDisplay:10.37,2013-01-28 11:33:00,
2013-01-28 06:38:00,60.8,58.8,30.26,East,93,0.0,0.0,93,0.00,SCT,,0.00,WeatherDisplay:10.37,2013-01-28 11:38:00,
2013-01-28 06:43:00,60.7,58.7,30.26,East,94,0.2,1.1,93,0.00,SCT,,0.00,WeatherDisplay:10.37,2013-01-28 11:43:00,
2013-01-28 06:48:00,60.6,58.6,30.26,North,355,0.0,0.0,93,0.00,SCT,,0.00,WeatherDisplay:10.37,2013-01-28 11:48:00,
2013-01-28 06:53:00,60.7,59.0,30.26,East,98,0.2,1.1,94,0.00,SCT,,0.00,WeatherDisplay:10.37,2013-01-28 11:53:00,
2013-01-28 06:58:00,60.6,58.9,30.27,NNE,26,0.0,0.0,94,0.00,SCT,,0.00,WeatherDisplay:10.37,2013-01-28 11:58:00,
2013-01-28 07:03:00,60.5,58.8,30.27,SE,134,0.1,1.0,94,0.00,SCT,,0.00,WeatherDisplay:10.37,2013-01-28 12:03:00,
2013-01-28 07:08:00,60.3,58.6,30.27,East,84,0.0,0.0,94,0.00,SCT,,0.00,WeatherDisplay:10.37,2013-01-28 12:08:00,
2013-01-28 07:13:00,60.2,58.5,30.27,East,85,0.0,0.0,94,0.00,CLR,,0.00,WeatherDisplay:10.37,2013-01-28 12:13:00,
2013-01-28 07:18:00,60.4,59.0,30.27,ESE,111,1.5,3.5,95,0.00,CLR,,0.00,WeatherDisplay:10.37,2013-01-28 12:18:00,
2013-01-28 07:23:00,60.5,58.8,30.27,East,94,0.1,1.1,94,0.00,CLR,,0.00,WeatherDisplay:10.37,2013-01-28 12:23:00,
2013-01-28 07:28:00,60.6,58.9,30.27,ESE,105,0.8,2.0,94,0.00,CLR,,0.00,WeatherDisplay:10.37,2013-01-28 12:28:00,
2013-01-28 07:33:00,60.6,58.9,30.27,ESE,117,0.5,2.3,94,0.00,CLR,,0.00,WeatherDisplay:10.37,2013-01-28 12:33:00,
2013-01-28 07:38:00,60.7,59.0,30.27,ESE,113,1.8,3.5,94,0.00,CLR,,0.00,WeatherDisplay:10.37,2013-01-28 12:38:00,
2013-01-28 07:43:00,60.7,59.0,30.28,ESE,109,1.0,2.3,94,0.00,CLR,,0.00,WeatherDisplay:10.37,2013-01-28 12:43:00,
2013-01-28 07:48:00,60.8,59.1,30.28,East,86,1.6,2.3,94,0.00,CLR,,0.00,WeatherDisplay:10.37,2013-01-28 12:48:00,
2013-01-28 07:53:00,60.8,58.8,30.28,ESE,107,0.8,2.0,93,0.00,CLR,,0.00,WeatherDisplay:10.37,2013-01-28 12:53:00,
2013-01-28 07:58:00,60.8,58.8,30.28,ESE,115,0.9,2.0,93,0.00,CLR,,0.00,WeatherDisplay:10.37,2013-01-28 12:58:00,
2013-01-28 08:03:00,60.9,58.9,30.28,East,91,0.5,1.1,93,0.00,CLR,,0.00,WeatherDisplay:10.37,2013-01-28 13:03:00,
2013-01-28 08:08:00,61.0,59.0,30.28,ESE,108,0.0,3.5,93,0.00,CLR,,0.00,WeatherDisplay:10.37,2013-01-28 13:08:00,
2013-01-28 08:13:00,61.1,59.1,30.28,East,92,1.2,2.3,93,0.00,CLR,,0.00,WeatherDisplay:10.37,2013-01-28 13:13:00,
2013-01-28 08:18:00,61.2,59.2,30.28,East,98,1.0,2.3,93,0.00,CLR,,0.00,WeatherDisplay:10.37,2013-01-28 13:18:00,
2013-01-28 08:23:00,61.5,59.5,30.28,NE,44,1.2,3.5,93,0.00,CLR,,0.00,WeatherDisplay:10.37,2013-01-28 13:23:00,
2013-01-28 08:28:00,61.8,59.8,30.28,East,86,0.8,2.3,93,0.00,CLR,,0.00,WeatherDisplay:10.37,2013-01-28 13:28:00,
2013-01-28 08:33:00,62.3,59.9,30.29,East,89,1.0,2.3,92,0.00,CLR,,0.00,WeatherDisplay:10.37,2013-01-28 13:33:00,
2013-01-28 08:38:00,63.1,60.4,30.28,SE,124,0.3,2.3,91,0.00,CLR,,0.00,WeatherDisplay:10.37,2013-01-28 13:38:00,
2013-01-28 08:43:00,63.6,60.6,30.28,ESE,118,1.4,2.3,90,0.00,CLR,,0.00,WeatherDisplay:10.37,2013-01-28 13:43:00,
2013-01-28 08:48:00,63.9,60.6,30.28,SE,134,2.8,5.8,89,0.00,CLR,,0.00,WeatherDisplay:10.37,2013-01-28 13:48:00,
2013-01-28 08:53:00,64.0,60.7,30.28,NE,50,1.4,3.5,89,0.00,CLR,,0.00,WeatherDisplay:10.37,2013-01-28 13:53:00,
2013-01-28 08:58:00,64.2,60.9,30.29,ESE,113,3.2,3.2,89,0.00,CLR,,0.00,WeatherDisplay:10.37,2013-01-28 13:58:00,
2013-01-28 09:03:00,64.5,61.2,30.29,ESE,108,4.5,8.1,89,0.00,CLR,,0.00,WeatherDisplay:10.37,2013-01-28 14:03:00,
2013-01-28 09:08:00,64.7,61.4,30.29,East,101,1.8,2.3,89,0.00,CLR,,0.00,WeatherDisplay:10.37,2013-01-28 14:08:00,
2013-01-28 09:13:00,65.0,61.7,30.29,SE,124,3.2,7.0,89,0.00,CLR,,0.00,WeatherDisplay:10.37,2013-01-28 14:13:00,
2013-01-28 09:18:00,65.2,61.9,30.29,ESE,121,0.9,3.5,89,0.00,CLR,,0.00,WeatherDisplay:10.37,2013-01-28 14:18:00,
2013-01-28 09:23:00,65.5,61.9,30.29,SE,130,1.4,3.0,88,0.00,CLR,,0.00,WeatherDisplay:10.37,2013-01-28 14:23:00,
2013-01-28 09:29:00,65.8,62.1,30.29,ESE,102,2.2,7.0,88,0.00,CLR,,0.00,WeatherDisplay:10.37,2013-01-28 14:29:00,
2013-01-28 09:34:00,66.1,62.1,30.29,ENE,74,1.3,3.5,87,0.00,CLR,,0.00,WeatherDisplay:10.37,2013-01-28 14:34:00,
2013-01-28 09:39:00,66.5,62.5,30.30,ESE,117,2.7,6.9,87,0.00,CLR,,0.00,WeatherDisplay:10.37,2013-01-28 14:39:00,
2013-01-28 09:44:00,66.8,62.8,30.30,ESE,111,0.0,2.3,87,0.00,CLR,,0.00,WeatherDisplay:10.37,2013-01-28 14:44:00,
2013-01-28 09:49:00,67.4,62.7,30.30,ESE,116,0.1,2.3,85,0.00,CLR,,0.00,WeatherDisplay:10.37,2013-01-28 14:49:00,
2013-01-28 09:54:00,68.0,63.0,30.30,East,91,2.4,4.6,84,0.00,CLR,,0.00,WeatherDisplay:10.37,2013-01-28 14:54:00,
2013-01-28 09:59:00,68.5,63.5,30.30,SE,124,1.6,3.5,84,0.00,CLR,,0.00,WeatherDisplay:10.37,2013-01-28 14:59:00,
2013-01-28 11:42:00,75.4,63.7,30.28,ESE,102,5.0,14.0,67,0.00,CLR,,0.00,WeatherDisplay:10.37,2013-01-28 16:42:00,
2013-01-28 11:47:00,75.5,64.2,30.28,SE,127,4.2,7.0,68,0.00,CLR,,0.00,WeatherDisplay:10.37,2013-01-28 16:47:00,
2013-01-28 11:52:00,75.4,63.2,30.28,East,96,4.3,9.2,66,0.00,CLR,,0.00,WeatherDisplay:10.37,2013-01-28 16:52:00,
2013-01-28 11:57:00,75.6,63.4,30.28,ESE,122,2.0,5.8,66,0.00,CLR,,0.00,WeatherDisplay:10.37,2013-01-28 16:57:00,
2013-01-28 12:02:00,76.3,63.2,30.28,SE,124,5.1,10.0,64,0.00,CLR,,0.00,WeatherDisplay:10.37,2013-01-28 17:02:00,
2013-01-28 12:07:00,77.1,62.1,30.27,ESE,122,4.6,8.1,60,0.00,CLR,,0.00,WeatherDisplay:10.37,2013-01-28 17:07:00,
2013-01-28 12:12:00,78.0,61.0,30.27,East,97,7.8,11.5,56,0.00,SCT,,0.00,WeatherDisplay:10.37,2013-01-28 17:12:00,
2013-01-28 12:17:00,78.5,61.0,30.27,East,91,7.0,11.5,55,0.00,SCT,,0.00,WeatherDisplay:10.37,2013-01-28 17:17:00,
2013-01-28 12:22:00,78.3,61.3,30.26,SE,127,6.9,12.7,56,0.00,SCT,,0.00,WeatherDisplay:10.37,2013-01-28 17:22:00,
2013-01-28 12:27:00,78.8,62.3,30.26,ESE,115,6.0,8.1,57,0.00,SCT,,0.00,WeatherDisplay:10.37,2013-01-28 17:27:00,
2013-01-28 12:32:00,78.4,62.4,30.26,ESE,122,4.5,11.5,58,0.00,SCT,,0.00,WeatherDisplay:10.37,2013-01-28 17:32:00,
2013-01-28 12:37:00,78.0,62.0,30.26,ESE,108,5.3,10.4,58,0.00,SCT,,0.00,WeatherDisplay:10.37,2013-01-28 17:37:00,
2013-01-28 12:42:00,77.9,61.9,30.26,East,89,6.1,11.5,58,0.00,SCT,,0.00,WeatherDisplay:10.37,2013-01-28 17:42:00,
2013-01-28 12:47:00,78.5,63.0,30.25,SE,127,3.2,5.8,59,0.00,SCT,,0.00,WeatherDisplay:10.37,2013-01-28 17:47:00,
2013-01-28 12:52:00,78.6,62.6,30.25,ENE,63,6.2,6.9,58,0.00,SCT,,0.00,WeatherDisplay:10.37,2013-01-28 17:52:00,
2013-01-28 12:57:00,78.9,62.9,30.25,SE,131,4.4,6.9,58,0.00,SCT,,0.00,WeatherDisplay:10.37,2013-01-28 17:57:00,
2013-01-28 13:02:00,78.8,62.8,30.24,ESE,120,4.7,9.2,58,0.00,SCT,,0.00,WeatherDisplay:10.37,2013-01-28 18:02:00,
2013-01-28 13:07:00,78.5,62.5,30.24,ESE,107,3.6,6.0,58,0.00,SCT,,0.00,WeatherDisplay:10.37,2013-01-28 18:07:00,
2013-01-28 13:12:00,78.8,63.3,30.24,East,93,1.5,3.5,59,0.00,BKN,,0.00,WeatherDisplay:10.37,2013-01-28 18:12:00,
2013-01-28 13:17:00,80.3,63.2,30.23,SE,135,0.5,3.5,56,0.00,BKN,,0.00,WeatherDisplay:10.37,2013-01-28 18:17:00,
2013-01-28 13:22:00,80.5,61.3,30.23,ENE,75,4.5,10.4,52,0.00,BKN,,0.00,WeatherDisplay:10.37,2013-01-28 18:22:00,
2013-01-28 13:27:00,80.9,61.6,30.23,SE,129,5.1,10.4,52,0.00,BKN,,0.00,WeatherDisplay:10.37,2013-01-28 18:27:00,
2013-01-28 13:32:00,80.7,60.9,30.23,NE,48,2.8,10.4,51,0.00,BKN,,0.00,WeatherDisplay:10.37,2013-01-28 18:32:00,
2013-01-28 13:37:00,80.7,60.9,30.22,ESE,109,4.9,6.9,51,0.00,BKN,,0.00,WeatherDisplay:10.37,2013-01-28 18:37:00,
2013-01-28 13:42:00,80.9,60.5,30.22,SE,132,5.3,8.1,50,0.00,BKN,,0.00,WeatherDisplay:10.37,2013-01-28 18:42:00,
2013-01-28 13:47:00,81.1,62.9,30.22,SW,225,5.2,6.0,54,0.00,BKN,,0.00,WeatherDisplay:10.37,2013-01-28 18:47:00,
2013-01-28 13:53:00,80.5,62.8,30.22,South,187,5.9,7.0,55,0.00,BKN,,0.00,WeatherDisplay:10.37,2013-01-28 18:53:00,
2013-01-28 13:58:00,80.2,63.1,30.21,SW,215,3.4,7.0,56,0.00,BKN,,0.00,WeatherDisplay:10.37,2013-01-28 18:58:00,
2013-01-28 14:03:00,80.8,61.5,30.21,SSE,165,5.3,6.0,52,0.00,BKN,,0.00,WeatherDisplay:10.37,2013-01-28 19:03:00,
2013-01-28 14:08:00,80.4,61.2,30.21,SSE,151,6.2,11.5,52,0.00,BKN,,0.00,WeatherDisplay:10.37,2013-01-28 19:08:00,
2013-01-28 14:13:00,80.4,61.2,30.21,ESE,113,4.1,6.9,52,0.00,BKN,,0.00,WeatherDisplay:10.37,2013-01-28 19:13:00,
2013-01-28 14:18:00,80.8,61.0,30.21,ESE,115,4.5,9.2,51,0.00,BKN,,0.00,WeatherDisplay:10.37,2013-01-28 19:18:00,
2013-01-28 14:56:00,81.8,63.5,30.20,SSE,159,1.6,7.0,54,0.00,BKN,,0.00,WeatherDisplay:10.37,2013-01-28 19:56:00,
2013-01-28 15:01:00,82.1,63.3,30.20,ENE,77,0.1,1.1,53,0.00,BKN,,0.00,WeatherDisplay:10.37,2013-01-28 20:01:00,
2013-01-28 15:06:00,82.0,61.0,30.20,SE,139,1.6,2.3,49,0.00,BKN,,0.00,WeatherDisplay:10.37,2013-01-28 20:06:00,
2013-01-28 15:11:00,81.7,62.9,30.20,WSW,250,1.5,2.3,53,0.00,BKN,,0.00,WeatherDisplay:10.37,2013-01-28 20:11:00,
2013-01-28 15:16:00,81.4,63.2,30.19,SSW,210,2.3,4.6,54,0.00,BKN,,0.00,WeatherDisplay:10.37,2013-01-28 20:16:00,
2013-01-28 15:21:00,80.8,62.6,30.19,SSE,160,2.9,4.6,54,0.00,BKN,,0.00,WeatherDisplay:10.37,2013-01-28 20:21:00,
2013-01-28 15:26:00,80.4,62.8,30.19,SSW,210,2.8,5.8,55,0.00,BKN,,0.00,WeatherDisplay:10.37,2013-01-28 20:26:00,
2013-01-28 15:31:00,79.9,62.8,30.19,SW,221,1.7,3.5,56,0.00,BKN,,0.00,WeatherDisplay:10.37,2013-01-28 20:31:00,
2013-01-28 15:36:00,79.6,63.0,30.19,West,269,1.2,3.5,57,0.00,BKN,,0.00,WeatherDisplay:10.37,2013-01-28 20:36:00,
2013-01-28 15:41:00,79.5,62.9,30.19,WNW,288,1.8,3.5,57,0.00,BKN,,0.00,WeatherDisplay:10.37,2013-01-28 20:41:00,
2013-01-28 15:46:00,79.9,63.3,30.19,SSW,210,2.1,4.0,57,0.00,BKN,,0.00,WeatherDisplay:10.37,2013-01-28 20:46:00,
2013-01-28 15:51:00,79.4,63.3,30.18,West,264,0.2,2.0,58,0.00,BKN,,0.00,WeatherDisplay:10.37,2013-01-28 20:51:00,
2013-01-28 15:56:00,79.0,63.0,30.18,SW,221,0.5,1.1,58,0.00,BKN,,0.00,WeatherDisplay:10.37,2013-01-28 20:56:00,
2013-01-28 16:01:00,78.7,62.7,30.18,WSW,242,1.7,3.5,58,0.00,SCT,,0.00,WeatherDisplay:10.37,2013-01-28 21:01:00,
2013-01-28 16:06:00,78.5,63.0,30.18,SSW,205,1.6,3.5,59,0.00,SCT,,0.00,WeatherDisplay:10.37,2013-01-28 21:06:00,
2013-01-28 16:11:00,78.4,62.9,30.18,SSE,162,2.9,3.5,59,0.00,SCT,,0.00,WeatherDisplay:10.37,2013-01-28 21:11:00,
2013-01-28 16:16:00,78.5,63.0,30.18,West,270,0.3,1.1,59,0.00,SCT,,0.00,WeatherDisplay:10.37,2013-01-28 21:16:00,
2013-01-28 16:21:00,78.7,64.1,30.18,SW,233,0.5,2.3,61,0.00,SCT,,0.00,WeatherDisplay:10.37,2013-01-28 21:21:00,
2013-01-28 16:26:00,78.6,63.6,30.18,West,279,0.0,2.3,60,0.00,SCT,,0.00,WeatherDisplay:10.37,2013-01-28 21:26:00,
2013-01-28 16:31:00,78.7,63.2,30.18,WSW,237,1.4,2.3,59,0.00,SCT,,0.00,WeatherDisplay:10.37,2013-01-28 21:31:00,
2013-01-28 16:36:00,78.9,63.4,30.18,West,276,1.6,3.0,59,0.00,SCT,,0.00,WeatherDisplay:10.37,2013-01-28 21:36:00,
2013-01-28 16:41:00,78.3,63.7,30.18,NW,312,1.2,3.5,61,0.00,SCT,,0.00,WeatherDisplay:10.37,2013-01-28 21:41:00,
2013-01-28 16:46:00,78.1,63.6,30.18,WNW,302,0.9,2.3,61,0.00,SCT,,0.00,WeatherDisplay:10.37,2013-01-28 21:46:00,
2013-01-28 16:51:00,77.6,63.1,30.18,North,353,1.6,2.3,61,0.00,SCT,,0.00,WeatherDisplay:10.37,2013-01-28 21:51:00,
2013-01-28 16:56:00,77.4,63.4,30.18,NNW,338,0.9,2.0,62,0.00,SCT,,0.00,WeatherDisplay:10.37,2013-01-28 21:56:00,
2013-01-28 17:01:00,77.1,63.5,30.18,NNE,18,1.5,3.5,63,0.00,SCT,,0.00,WeatherDisplay:10.37,2013-01-28 22:01:00,
2013-01-28 17:06:00,76.8,64.1,30.18,NNE,22,3.4,4.6,65,0.00,SCT,,0.00,WeatherDisplay:10.37,2013-01-28 22:06:00,
2013-01-28 17:11:00,76.0,63.8,30.18,NNW,332,2.6,4.6,66,0.00,SCT,,0.00,WeatherDisplay:10.37,2013-01-28 22:11:00,
2013-01-28 17:16:00,75.3,63.6,30.18,NNE,19,2.5,3.5,67,0.00,SCT,,0.00,WeatherDisplay:10.37,2013-01-28 22:16:00,
2013-01-28 17:21:00,74.8,63.5,30.19,NNW,345,0.8,2.3,68,0.00,SCT,,0.00,WeatherDisplay:10.37,2013-01-28 22:21:00,
2013-01-28 17:26:00,74.4,63.1,30.19,NNW,330,1.3,2.3,68,0.00,SCT,,0.00,WeatherDisplay:10.37,2013-01-28 22:26:00,
2013-01-28 17:31:00,74.1,62.9,30.19,North,349,2.7,4.6,68,0.00,SCT,,0.00,WeatherDisplay:10.37,2013-01-28 22:31:00,
2013-01-28 17:36:00,74.0,62.8,30.19,North,354,1.4,3.0,68,0.00,SCT,,0.00,WeatherDisplay:10.37,2013-01-28 22:36:00,
2013-01-28 17:41:00,73.8,62.6,30.19,NNW,347,1.8,3.5,68,0.00,SCT,,0.00,WeatherDisplay:10.37,2013-01-28 22:41:00,
2013-01-28 17:46:00,73.6,62.8,30.20,North,352,0.0,0.0,69,0.00,SCT,,0.00,WeatherDisplay:10.37,2013-01-28 22:46:00,
2013-01-28 17:51:00,73.3,62.9,30.20,North,351,0.0,0.0,70,0.00,SCT,,0.00,WeatherDisplay:10.37,2013-01-28 22:51:00,
2013-01-28 17:56:00,73.3,62.9,30.20,North,9,0.0,1.1,70,0.00,SCT,,0.00,WeatherDisplay:10.37,2013-01-28 22:56:00,
2013-01-28 18:01:00,73.2,62.8,30.20,NE,37,0.0,0.0,70,0.00,CLR,,0.00,WeatherDisplay:10.37,2013-01-28 23:01:00,
2013-01-28 18:06:00,72.9,62.9,30.20,NE,37,0.0,0.0,71,0.00,CLR,,0.00,WeatherDisplay:10.37,2013-01-28 23:06:00,
2013-01-28 18:11:00,72.4,62.9,30.20,NE,37,0.0,0.0,72,0.00,CLR,,0.00,WeatherDisplay:10.37,2013-01-28 23:11:00,
2013-01-28 18:16:00,72.1,62.6,30.20,NE,37,0.0,0.0,72,0.00,CLR,,0.00,WeatherDisplay:10.37,2013-01-28 23:16:00,
2013-01-28 18:21:00,71.8,62.7,30.20,NE,37,0.0,0.0,73,0.00,CLR,,0.00,WeatherDisplay:10.37,2013-01-28 23:21:00,
2013-01-28 18:26:00,71.4,62.7,30.20,NE,37,0.0,0.0,74,0.00,CLR,,0.00,WeatherDisplay:10.37,2013-01-28 23:26:00,
2013-01-28 18:31:00,71.1,62.4,30.20,NE,37,0.0,0.0,74,0.00,CLR,,0.00,WeatherDisplay:10.37,2013-01-28 23:31:00,
2013-01-28 18:36:00,70.8,62.5,30.20,NE,37,0.0,0.0,75,0.00,CLR,,0.00,WeatherDisplay:10.37,2013-01-28 23:36:00,
2013-01-28 18:41:00,70.5,62.6,30.20,NE,37,0.0,0.0,76,0.00,CLR,,0.00,WeatherDisplay:10.37,2013-01-28 23:41:00,
2013-01-28 18:46:00,70.3,63.1,30.21,NE,37,0.0,0.0,78,0.00,CLR,,0.00,WeatherDisplay:10.37,2013-01-28 23:46:00,
2013-01-28 18:51:00,69.9,62.4,30.21,NE,40,0.0,0.0,77,0.00,CLR,,0.00,WeatherDisplay:10.37,2013-01-28 23:51:00,
2013-01-28 18:56:00,69.6,62.4,30.21,NE,40,0.0,0.0,78,0.00,CLR,,0.00,WeatherDisplay:10.37,2013-01-28 23:56:00,
2013-01-28 19:01:00,69.2,62.0,30.21,NE,40,0.0,0.0,78,0.00,CLR,,0.00,WeatherDisplay:10.37,2013-01-29 00:01:00,
2013-01-28 19:06:00,68.9,62.1,30.21,NE,40,0.0,0.0,79,0.00,CLR,,0.00,WeatherDisplay:10.37,2013-01-29 00:06:00,
2013-01-28 19:11:00,68.6,62.2,30.21,NE,40,0.0,0.0,80,0.00,CLR,,0.00,WeatherDisplay:10.37,2013-01-29 00:11:00,
2013-01-28 19:16:00,68.3,61.9,30.21,NE,40,0.0,0.0,80,0.00,CLR,,0.00,WeatherDisplay:10.37,2013-01-29 00:16:00,
2013-01-28 19:21:00,68.1,62.0,30.21,NE,40,0.0,0.0,81,0.00,CLR,,0.00,WeatherDisplay:10.37,2013-01-29 00:21:00,
2013-01-28 19:26:00,67.9,62.2,30.21,NE,40,0.0,0.0,82,0.00,CLR,,0.00,WeatherDisplay:10.37,2013-01-29 00:26:00,
2013-01-28 19:31:00,67.7,62.3,30.21,NE,40,0.0,0.0,83,0.00,CLR,,0.00,WeatherDisplay:10.37,2013-01-29 00:31:00,
2013-01-28 19:36:00,67.6,62.3,30.21,NE,41,0.0,0.0,83,0.00,CLR,,0.00,WeatherDisplay:10.37,2013-01-29 00:36:00,
2013-01-28 19:41:00,67.5,62.5,30.21,NE,40,0.0,0.0,84,0.00,CLR,,0.00,WeatherDisplay:10.37,2013-01-29 00:41:00,
2013-01-28 19:46:00,67.3,62.3,30.21,NE,40,0.0,0.0,84,0.00,CLR,,0.00,WeatherDisplay:10.37,2013-01-29 00:46:00,
2013-01-28 19:52:00,67.1,62.1,30.21,NE,40,0.0,0.0,84,0.00,CLR,,0.00,WeatherDisplay:10.37,2013-01-29 00:52:00,
2013-01-28 19:57:00,66.9,62.2,30.21,NE,40,0.0,0.0,85,0.00,CLR,,0.00,WeatherDisplay:10.37,2013-01-29 00:57:00,
2013-01-28 20:02:00,66.7,62.0,30.22,NE,40,0.0,0.0,85,0.00,CLR,,0.00,WeatherDisplay:10.37,2013-01-29 01:02:00,
2013-01-28 20:07:00,66.6,62.3,30.22,NE,40,0.0,0.0,86,0.00,CLR,,0.00,WeatherDisplay:10.37,2013-01-29 01:07:00,
2013-01-28 20:12:00,66.4,61.8,30.22,NE,40,0.0,0.0,85,0.00,CLR,,0.00,WeatherDisplay:10.37,2013-01-29 01:12:00,
2013-01-28 20:17:00,66.2,61.9,30.22,NE,40,0.0,0.0,86,0.00,CLR,,0.00,WeatherDisplay:10.37,2013-01-29 01:17:00,
2013-01-28 20:22:00,66.2,61.9,30.22,NE,40,0.0,0.0,86,0.00,CLR,,0.00,WeatherDisplay:10.37,2013-01-29 01:22:00,
2013-01-28 20:27:00,66.3,62.0,30.22,NNE,18,0.7,2.3,86,0.00,CLR,,0.00,WeatherDisplay:10.37,2013-01-29 01:27:00,
2013-01-28 20:32:00,66.6,61.9,30.22,NNE,13,0.0,0.0,85,0.00,CLR,,0.00,WeatherDisplay:10.37,2013-01-29 01:32:00,
2013-01-28 20:37:00,66.7,62.0,30.22,NNE,14,0.0,0.0,85,0.00,CLR,,0.00,WeatherDisplay:10.37,2013-01-29 01:37:00,
2013-01-28 20:42:00,66.9,62.2,30.23,North,9,0.7,1.1,85,0.00,CLR,,0.00,WeatherDisplay:10.37,2013-01-29 01:42:00,
2013-01-28 20:47:00,67.1,62.4,30.23,North,9,0.1,1.0,85,0.00,CLR,,0.00,WeatherDisplay:10.37,2013-01-29 01:47:00,
2013-01-28 20:52:00,67.4,62.4,30.23,North,11,0.0,0.0,84,0.00,CLR,,0.00,WeatherDisplay:10.37,2013-01-29 01:52:00,
2013-01-28 20:57:00,67.6,62.6,30.23,North,11,0.0,0.0,84,0.00,CLR,,0.00,WeatherDisplay:10.37,2013-01-29 01:57:00,
2013-01-28 21:02:00,67.6,62.6,30.23,North,11,0.0,0.0,84,0.00,CLR,,0.00,WeatherDisplay:10.37,2013-01-29 02:02:00,
2013-01-28 21:07:00,67.5,62.8,30.23,North,11,0.0,0.0,85,0.00,CLR,,0.00,WeatherDisplay:10.37,2013-01-29 02:07:00,
2013-01-28 21:12:00,67.3,62.6,30.23,North,11,0.0,0.0,85,0.00,OVC,,0.00,WeatherDisplay:10.37,2013-01-29 02:12:00,
2013-01-28 21:17:00,67.2,62.9,30.23,North,11,0.0,0.0,86,0.00,OVC,,0.00,WeatherDisplay:10.37,2013-01-29 02:17:00,
2013-01-28 21:22:00,66.9,62.6,30.23,North,11,0.0,0.0,86,0.00,OVC,,0.00,WeatherDisplay:10.37,2013-01-29 02:22:00,
2013-01-28 21:27:00,66.6,62.3,30.23,North,11,0.0,0.0,86,0.00,OVC,,0.00,WeatherDisplay:10.37,2013-01-29 02:27:00,
2013-01-28 21:32:00,66.2,61.9,30.23,North,11,0.0,0.0,86,0.00,OVC,,0.00,WeatherDisplay:10.37,2013-01-29 02:32:00,
2013-01-28 21:37:00,66.0,62.0,30.23,North,11,0.0,0.0,87,0.00,OVC,,0.00,WeatherDisplay:10.37,2013-01-29 02:37:00,
2013-01-28 21:42:00,65.8,61.8,30.23,North,11,0.0,0.0,87,0.00,OVC,,0.00,WeatherDisplay:10.37,2013-01-29 02:42:00,
2013-01-28 21:47:00,66.0,62.0,30.23,North,11,0.0,0.0,87,0.00,OVC,,0.00,WeatherDisplay:10.37,2013-01-29 02:47:00,
2013-01-28 21:52:00,66.2,61.9,30.23,North,11,0.0,0.0,86,0.00,OVC,,0.00,WeatherDisplay:10.37,2013-01-29 02:52:00,
2013-01-28 21:57:00,66.1,61.5,30.23,North,11,0.0,0.0,85,0.00,OVC,,0.00,WeatherDisplay:10.37,2013-01-29 02:57:00,
2013-01-28 22:02:00,65.8,61.5,30.23,North,11,0.0,0.0,86,0.00,OVC,,0.00,WeatherDisplay:10.37,2013-01-29 03:02:00,
2013-01-28 22:07:00,65.8,61.8,30.23,North,11,0.0,0.0,87,0.00,OVC,,0.00,WeatherDisplay:10.37,2013-01-29 03:07:00,
2013-01-28 22:12:00,65.7,61.1,30.23,North,11,0.0,0.0,85,0.00,OVC,,0.00,WeatherDisplay:10.37,2013-01-29 03:12:00,
2013-01-28 22:17:00,65.7,61.1,30.23,North,11,0.0,0.0,85,0.00,OVC,,0.00,WeatherDisplay:10.37,2013-01-29 03:17:00,
2013-01-28 22:22:00,65.6,61.0,30.23,North,9,0.0,0.0,85,0.00,OVC,,0.00,WeatherDisplay:10.37,2013-01-29 03:22:00,
2013-01-28 22:27:00,65.5,60.9,30.23,North,9,0.0,0.0,85,0.00,OVC,,0.00,WeatherDisplay:10.37,2013-01-29 03:27:00,
2013-01-28 22:32:00,65.5,60.9,30.23,ESE,110,0.2,1.0,85,0.00,OVC,,0.00,WeatherDisplay:10.37,2013-01-29 03:32:00,
2013-01-28 22:37:00,65.8,61.2,30.23,ESE,123,0.1,0.0,85,0.00,OVC,,0.00,WeatherDisplay:10.37,2013-01-29 03:37:00,
2013-01-28 22:42:00,66.3,61.3,30.23,East,91,0.1,1.1,84,0.00,OVC,,0.00,WeatherDisplay:10.37,2013-01-29 03:42:00,
2013-01-28 22:47:00,66.6,61.3,30.23,East,99,0.0,1.1,83,0.00,OVC,,0.00,WeatherDisplay:10.37,2013-01-29 03:47:00,
2013-01-28 22:52:00,66.8,61.5,30.23,East,89,0.6,2.3,83,0.00,OVC,,0.00,WeatherDisplay:10.37,2013-01-29 03:52:00,
2013-01-28 22:57:00,66.9,61.2,30.23,East,90,0.0,2.3,82,0.00,OVC,,0.00,WeatherDisplay:10.37,2013-01-29 03:57:00,
2013-01-28 23:02:00,66.9,61.2,30.23,East,82,0.0,1.1,82,0.00,OVC,,0.00,WeatherDisplay:10.37,2013-01-29 04:02:00,
2013-01-28 23:07:00,66.8,61.5,30.23,ESE,122,0.0,1.1,83,0.00,OVC,,0.00,WeatherDisplay:10.37,2013-01-29 04:07:00,
2013-01-28 23:12:00,66.8,61.5,30.23,East,99,0.0,1.1,83,0.00,OVC,,0.00,WeatherDisplay:10.37,2013-01-29 04:12:00,
2013-01-28 23:17:00,66.7,61.4,30.23,ESE,108,0.0,0.0,83,0.00,OVC,,0.00,WeatherDisplay:10.37,2013-01-29 04:17:00,
2013-01-28 23:22:00,66.5,61.2,30.22,ESE,102,0.0,2.3,83,0.00,OVC,,0.00,WeatherDisplay:10.37,2013-01-29 04:22:00,
2013-01-28 23:27:00,66.3,61.0,30.23,East,84,0.2,2.3,83,0.00,OVC,,0.00,WeatherDisplay:10.37,2013-01-29 04:27:00,
2013-01-28 23:32:00,66.2,61.2,30.23,ESE,118,0.4,1.1,84,0.00,OVC,,0.00,WeatherDisplay:10.37,2013-01-29 04:32:00,
2013-01-28 23:38:00,66.0,61.0,30.22,ESE,115,0.3,1.1,84,0.00,OVC,,0.00,WeatherDisplay:10.37,2013-01-29 04:38:00,
2013-01-28 23:43:00,65.8,60.8,30.22,ESE,120,0.3,2.3,84,0.00,OVC,,0.00,WeatherDisplay:10.37,2013-01-29 04:43:00,
2013-01-28 23:48:00,65.8,60.8,30.22,SE,124,1.0,3.5,84,0.00,OVC,,0.00,WeatherDisplay:10.37,2013-01-29 04:48:00,
2013-01-28 23:53:00,65.8,60.5,30.22,SE,130,0.6,3.5,83,0.00,OVC,,0.00,WeatherDisplay:10.37,2013-01-29 04:53:00,
2013-01-28 23:58:00,65.7,60.4,30.22,ESE,120,1.6,3.5,83,0.00,OVC,,0.00,WeatherDisplay:10.37,2013-01-29 04:58:00,